Terminal Aerodrome Forecast
Issued by NWS Newport/Morehead City, NC

Home | Current Version | Previous Version | Text Only | Print | Product List | Glossary On
Versions: 1 2 3 4 5 6 7 8 9 10 11 12 13 14 15 16 17 18 19
000
FTUS42 KMHX 241745
TAFEWN
TAF
KEWN 241745Z 2418/2518 25010G18KT P6SM BKN040
     FM242100 21010KT 6SM SHRA VCTS BKN040CB
     FM250000 21006KT 4SM SHRA VCTS SCT025CB OVC040
     FM250600 22006KT 4SM -SHRA VCTS SCT007CB OVC020
     FM251400 25006KT P6SM BKN045=

USA.gov is the U.S. government's official web portal to all federal, state and local government web resources and services.